This is the latest recevied weather packets stored in our database for station/object G6FJI-13. If no packets are shown the sender has not sent any weather packets the latest 10 day(s).
| Time | Temp. | Humidity | Pressure | Rain* | Wind** | Luminosity | Snow |
|---|---|---|---|---|---|---|---|
| 1778068356 | 13.89° C | 53% | 1016.9 hPa | 0 mm | - | 656 W/m² | - |
| 1778065938 | 12.78° C | 56% | 1017.1 hPa | 0 mm | - | 355 W/m² | - |
| 1778059223 | 9.44° C | 73% | 1017.3 hPa | 0 mm | - | 156 W/m² | - |
| 1778058667 | 9.44° C | 74% | 1017.3 hPa | 0 mm | - | 150 W/m² | - |
| 1778056269 | 8.89° C | 78% | 1017.2 hPa | 0 mm | - | 126 W/m² | - |
| 1778055625 | 8.89° C | 77% | 1017.1 hPa | 0 mm | - | 127 W/m² | - |
| 1778054446 | 8.33° C | 78% | 1017.1 hPa | 0 mm | - | 113 W/m² | - |
| 1778052037 | 7.78° C | 81% | 1017.3 hPa | 0 mm | - | 67 W/m² | - |
| 1778050768 | 7.78° C | 82% | 1017.1 hPa | 0 mm | - | 44 W/m² | - |
| 1778047834 | 7.22° C | 82% | 1016.9 hPa | 0 mm | - | 35 W/m² | - |
| 1778039420 | 7.78° C | 82% | 1016.8 hPa | 0 mm | - | 0 W/m² | - |
| 1778038776 | 7.78° C | 81% | 1016.5 hPa | 0 mm | - | 0 W/m² | - |
| 1778038241 | 7.78° C | 81% | 1016.6 hPa | 0 mm | - | 0 W/m² | - |
| 1778037022 | 7.78° C | 81% | 1016.6 hPa | 0 mm | - | 0 W/m² | - |
| 1778032141 | 8.89° C | 83% | 1016.5 hPa | 0 mm | - | 0 W/m² | - |
| 1778030902 | 8.89° C | 81% | 1016.6 hPa | 0 mm | - | 0 W/m² | - |
| 1778029723 | 8.89° C | 80% | 1017.1 hPa | 0 mm | - | 0 W/m² | - |
| 1778023707 | 10° C | 82% | 1016.7 hPa | 0 mm | - | 0 W/m² | - |
| 1778007970 | 13.33° C | 69% | 1015.4 hPa | 0 mm | - | 6 W/m² | - |
| 1778003741 | 13.89° C | 68% | 1015 hPa | 0 mm | - | 41 W/m² | - |
| 1777998252 | 14.44° C | 67% | 1015.3 hPa | 0 mm | - | 74 W/m² | - |
| 1777997641 | 14.44° C | 66% | 1015.3 hPa | 0 mm | - | 78 W/m² | - |
| 1777989733 | 15.56° C | 63% | 1015.7 hPa | 0 mm | - | 171 W/m² | - |
| 1777981820 | 16.11° C | 64% | 1015.8 hPa | 0 mm | - | 153 W/m² | - |
| 1777979901 | 15° C | 68% | 1016.3 hPa | 0 mm | - | 146 W/m² | - |
* Rain latest hour (hover to see other rain measurements)
** Current wind speed in m/s (hover to see current wind gust speed)